Time;durP1;ratioP1;P1;durP2;ratioP2;P2;SDS_P1;SDS_P2;PMS_P1;PMS_P2;Temp;Humidity;BMP_temperature;BMP_pressure;BME280_temperature;BME280_humidity;BME280_pressure;Samples;Min_cycle;Max_cycle;Signal;HPM_P1;HPM_P2
2024/03/20 00:01:32;;;;;;;;;;;;;;;;;;4873580;29;19923;-59
2024/03/20 00:03:58;;;;;;;;;;;;;;;;;;4875480;29;19918;-58
2024/03/20 00:06:24;;;;;;;;;;;;;;;;;;4876350;29;19955;-57
2024/03/20 00:08:50;;;;;;;;;;;;;;;;;;4881086;29;19973;-58
2024/03/20 00:11:16;;;;;;;;;;;;;;;;;;4881627;29;19916;-58
2024/03/20 00:13:42;;;;;;;;;;;;;;;;;;4881296;29;19950;-58
2024/03/20 00:16:10;;;;;;;;;;;;;;;;;;4876923;29;19920;-59
2024/03/20 00:18:36;;;;;;;;;;;;;;;;;;4877031;29;19912;-56
2024/03/20 00:21:02;;;;;;;;;;;;;;;;;;4875418;29;19915;-56
2024/03/20 00:23:28;;;;;;;;;;;;;;;;;;4876124;29;19970;-55
2024/03/20 00:25:53;;;;;;;;;;;;;;;;;;4876630;29;19955;-55
2024/03/20 00:28:20;;;;;;;;;;;;;;;;;;4882630;29;19958;-55
2024/03/20 00:30:46;;;;;;;;;;;;;;;;;;4879227;29;19919;-55
2024/03/20 00:33:12;;;;;;;;;;;;;;;;;;4878629;29;20330;-55
2024/03/20 00:35:38;;;;;;;;;;;;;;;;;;4876416;29;20364;-56
2024/03/20 00:38:04;;;;;;;;;;;;;;;;;;4876544;29;19919;-55
2024/03/20 00:40:30;;;;;;;;;;;;;;;;;;4876013;29;19961;-56
2024/03/20 00:42:56;;;;;;;;;;;;;;;;;;4881456;29;19954;-55
2024/03/20 00:45:22;;;;;;;;;;;;;;;;;;4876200;29;20015;-55
2024/03/20 00:47:48;;;;;;;;;;;;;;;;;;4882442;29;19954;-55
2024/03/20 00:50:14;;;;;;;;;;;;;;;;;;4876429;29;20384;-55
2024/03/20 00:52:40;;;;;;;;;;;;;;;;;;4881971;29;20351;-54
2024/03/20 00:55:09;;;;;;;;;;;;;;;;;;4876143;29;20323;-56
2024/03/20 00:57:35;;;;;;;;;;;;;;;;;;4879827;29;19959;-55
2024/03/20 01:00:01;;;;;;;;;;;;;;;;;;4876323;29;19920;-55
2024/03/20 01:02:27;;;;;;;;;;;;;;;;;;4881317;29;20014;-55
2024/03/20 01:04:53;;;;;;;;;;;;;;;;;;4874867;29;19950;-55
2024/03/20 01:07:18;;;;;;;;;;;;;;;;;;4875058;29;19943;-53
2024/03/20 01:09:44;;;;;;;;;;;;;;;;;;4883822;29;20015;-54
2024/03/20 01:12:10;;;;;;;;;;;;;;;;;;4872920;29;19959;-54
2024/03/20 01:14:36;;;;;;;;;;;;;;;;;;4878126;29;19958;-53
2024/03/20 01:17:02;;;;;;;;;;;;;;;;;;4874257;29;19963;-54
2024/03/20 01:19:28;;;;;;;;;;;;;;;;;;4883411;29;19955;-54
2024/03/20 01:21:54;;;;;;;;;;;;;;;;;;4874099;29;19923;-55
2024/03/20 01:24:20;;;;;;;;;;;;;;;;;;4875425;29;20399;-53
2024/03/20 01:26:46;;;;;;;;;;;;;;;;;;4879793;29;20010;-53
2024/03/20 01:29:12;;;;;;;;;;;;;;;;;;4876588;29;20416;-55
2024/03/20 01:31:38;;;;;;;;;;;;;;;;;;4882185;29;21318;-55
2024/03/20 01:34:04;;;;;;;;;;;;;;;;;;4874415;29;20348;-55
2024/03/20 01:36:30;;;;;;;;;;;;;;;;;;4876705;29;20320;-55
2024/03/20 01:38:56;;;;;;;;;;;;;;;;;;4872526;29;19968;-55
2024/03/20 01:41:22;;;;;;;;;;;;;;;;;;4873942;29;19922;-55
2024/03/20 01:43:48;;;;;;;;;;;;;;;;;;4874799;29;19960;-55
2024/03/20 01:46:14;;;;;;;;;;;;;;;;;;4875029;29;19919;-55
2024/03/20 01:48:40;;;;;;;;;;;;;;;;;;4875317;29;20010;-55
2024/03/20 01:51:06;;;;;;;;;;;;;;;;;;4880544;29;20445;-55
2024/03/20 01:53:32;;;;;;;;;;;;;;;;;;4877698;29;20404;-55
2024/03/20 01:55:57;;;;;;;;;;;;;;;;;;4875449;29;20462;-55
2024/03/20 01:58:23;;;;;;;;;;;;;;;;;;4879367;29;20358;-56
2024/03/20 02:00:49;;;;;;;;;;;;;;;;;;4874438;29;20324;-56
2024/03/20 02:03:15;;;;;;;;;;;;;;;;;;4878181;29;20018;-55
2024/03/20 02:05:41;;;;;;;;;;;;;;;;;;4875781;29;19958;-54
2024/03/20 02:08:07;;;;;;;;;;;;;;;;;;4869067;29;19951;-55
2024/03/20 02:10:33;;;;;;;;;;;;;;;;;;4875396;29;20011;-56
2024/03/20 02:12:59;;;;;;;;;;;;;;;;;;4874300;29;19966;-55
2024/03/20 02:15:25;;;;;;;;;;;;;;;;;;4876061;29;19911;-55
2024/03/20 02:17:51;;;;;;;;;;;;;;;;;;4874640;29;19964;-53
2024/03/20 02:20:17;;;;;;;;;;;;;;;;;;4875233;29;20387;-51
2024/03/20 02:22:43;;;;;;;;;;;;;;;;;;4874415;29;20400;-52
2024/03/20 02:25:09;;;;;;;;;;;;;;;;;;4875611;29;19911;-51
2024/03/20 02:27:36;;;;;;;;;;;;;;;;;;4879253;29;20341;-51
2024/03/20 02:30:02;;;;;;;;;;;;;;;;;;4878993;29;20372;-53
2024/03/20 02:32:28;;;;;;;;;;;;;;;;;;4877592;29;20357;-52
2024/03/20 02:34:54;;;;;;;;;;;;;;;;;;4878732;29;19962;-53
2024/03/20 02:37:19;;;;;;;;;;;;;;;;;;4881292;29;19958;-52
2024/03/20 02:39:45;;;;;;;;;;;;;;;;;;4878364;29;20006;-53
2024/03/20 02:42:12;;;;;;;;;;;;;;;;;;4876371;29;20095;-54
2024/03/20 02:44:38;;;;;;;;;;;;;;;;;;4879271;29;20333;-52
2024/03/20 02:47:04;;;;;;;;;;;;;;;;;;4877949;29;19919;-53
2024/03/20 02:49:30;;;;;;;;;;;;;;;;;;4878353;29;20392;-54
2024/03/20 02:51:55;;;;;;;;;;;;;;;;;;4884198;29;19912;-53
2024/03/20 02:54:21;;;;;;;;;;;;;;;;;;4878368;29;19962;-54
2024/03/20 02:56:47;;;;;;;;;;;;;;;;;;4876247;29;19959;-54
2024/03/20 02:59:13;;;;;;;;;;;;;;;;;;4880034;29;20015;-53
2024/03/20 03:01:39;;;;;;;;;;;;;;;;;;4877999;29;19962;-53
2024/03/20 03:04:06;;;;;;;;;;;;;;;;;;4878430;29;19962;-53
2024/03/20 03:06:32;;;;;;;;;;;;;;;;;;4876115;29;19912;-53
2024/03/20 03:08:58;;;;;;;;;;;;;;;;;;4871409;29;19941;-54
2024/03/20 03:11:24;;;;;;;;;;;;;;;;;;4873797;29;19977;-53
2024/03/20 03:13:50;;;;;;;;;;;;;;;;;;4873635;29;19943;-54
2024/03/20 03:16:16;;;;;;;;;;;;;;;;;;4877808;29;19972;-53
2024/03/20 03:18:42;;;;;;;;;;;;;;;;;;4871678;29;19958;-53
2024/03/20 03:21:08;;;;;;;;;;;;;;;;;;4877535;29;19922;-54
2024/03/20 03:23:34;;;;;;;;;;;;;;;;;;4877623;29;20479;-54
2024/03/20 03:26:00;;;;;;;;;;;;;;;;;;4877678;29;19963;-53
2024/03/20 03:28:26;;;;;;;;;;;;;;;;;;4876553;29;19961;-53
2024/03/20 03:30:52;;;;;;;;;;;;;;;;;;4880508;29;19946;-55
2024/03/20 03:33:18;;;;;;;;;;;;;;;;;;4880338;29;19944;-55
2024/03/20 03:35:44;;;;;;;;;;;;;;;;;;4887211;29;19959;-55
2024/03/20 03:38:09;;;;;;;;;;;;;;;;;;4876582;29;19995;-55
2024/03/20 03:40:35;;;;;;;;;;;;;;;;;;4878204;29;19951;-55
2024/03/20 03:43:01;;;;;;;;;;;;;;;;;;4878679;29;20049;-55
2024/03/20 03:45:27;;;;;;;;;;;;;;;;;;4877507;29;19965;-56
2024/03/20 03:47:53;;;;;;;;;;;;;;;;;;4877964;29;19964;-56
2024/03/20 03:50:19;;;;;;;;;;;;;;;;;;4879374;29;20277;-56
2024/03/20 03:52:45;;;;;;;;;;;;;;;;;;4879834;29;19963;-55
2024/03/20 03:55:11;;;;;;;;;;;;;;;;;;4878248;29;19918;-55
2024/03/20 03:57:37;;;;;;;;;;;;;;;;;;4875610;29;19943;-55
2024/03/20 04:00:03;;;;;;;;;;;;;;;;;;4877742;29;20312;-54
2024/03/20 04:02:31;;;;;;;;;;;;;;;;;;4882509;29;19979;-56
2024/03/20 04:04:57;;;;;;;;;;;;;;;;;;4877291;29;19959;-55
2024/03/20 04:07:23;;;;;;;;;;;;;;;;;;4876441;29;20015;-55
2024/03/20 04:09:49;;;;;;;;;;;;;;;;;;4877572;29;19934;-56
2024/03/20 04:12:15;;;;;;;;;;;;;;;;;;4876640;29;20387;-55
2024/03/20 04:14:41;;;;;;;;;;;;;;;;;;4877432;29;19912;-54
2024/03/20 04:17:07;;;;;;;;;;;;;;;;;;4876963;29;19912;-56
2024/03/20 04:19:34;;;;;;;;;;;;;;;;;;4876973;29;19957;-55
2024/03/20 04:22:00;;;;;;;;;;;;;;;;;;4876737;29;20010;-55
2024/03/20 04:24:26;;;;;;;;;;;;;;;;;;4881496;29;20324;-55
2024/03/20 04:26:52;;;;;;;;;;;;;;;;;;4875380;29;19963;-55
2024/03/20 04:29:18;;;;;;;;;;;;;;;;;;4876641;29;19947;-55
2024/03/20 04:31:44;;;;;;;;;;;;;;;;;;4876053;29;19916;-55
2024/03/20 04:34:10;;;;;;;;;;;;;;;;;;4876757;29;20011;-54
2024/03/20 04:36:37;;;;;;;;;;;;;;;;;;4875809;29;19919;-55
2024/03/20 04:39:06;;;;;;;;;;;;;;;;;;4881741;29;19912;-55
2024/03/20 04:41:32;;;;;;;;;;;;;;;;;;4876178;29;19938;-53
2024/03/20 04:43:58;;;;;;;;;;;;;;;;;;4877397;29;21178;-52
2024/03/20 04:46:24;;;;;;;;;;;;;;;;;;4881411;29;19951;-51
2024/03/20 04:48:50;;;;;;;;;;;;;;;;;;4876366;29;19951;-53
2024/03/20 04:51:16;;;;;;;;;;;;;;;;;;4876665;29;19947;-52
2024/03/20 04:53:42;;;;;;;;;;;;;;;;;;4878832;29;19956;-52
2024/03/20 04:56:08;;;;;;;;;;;;;;;;;;4880202;29;19955;-52
2024/03/20 04:58:34;;;;;;;;;;;;;;;;;;4884531;29;19951;-51
2024/03/20 05:01:00;;;;;;;;;;;;;;;;;;4876780;29;19966;-58
2024/03/20 05:03:27;;;;;;;;;;;;;;;;;;4883388;29;19966;-57
2024/03/20 05:05:53;;;;;;;;;;;;;;;;;;4879217;29;20313;-58
2024/03/20 05:08:19;;;;;;;;;;;;;;;;;;4888157;29;20003;-58
2024/03/20 05:10:44;;;;;;;;;;;;;;;;;;4883323;29;19922;-57
2024/03/20 05:13:10;;;;;;;;;;;;;;;;;;4874952;29;19959;-58
2024/03/20 05:15:36;;;;;;;;;;;;;;;;;;4876394;29;19977;-57
2024/03/20 05:18:02;;;;;;;;;;;;;;;;;;4875475;29;19947;-57
2024/03/20 05:20:28;;;;;;;;;;;;;;;;;;4879012;29;20000;-57
2024/03/20 05:22:54;;;;;;;;;;;;;;;;;;4875204;29;20012;-58
2024/03/20 05:25:20;;;;;;;;;;;;;;;;;;4877452;29;19951;-57
2024/03/20 05:27:46;;;;;;;;;;;;;;;;;;4873981;29;20503;-57
2024/03/20 05:30:12;;;;;;;;;;;;;;;;;;4877438;29;19923;-58
2024/03/20 05:32:38;;;;;;;;;;;;;;;;;;4874308;29;19916;-58
2024/03/20 05:35:04;;;;;;;;;;;;;;;;;;4874438;29;19918;-58
2024/03/20 05:37:30;;;;;;;;;;;;;;;;;;4874248;29;19943;-58
2024/03/20 05:39:56;;;;;;;;;;;;;;;;;;4876023;29;19959;-57
2024/03/20 05:42:22;;;;;;;;;;;;;;;;;;4880195;29;19979;-58
2024/03/20 05:44:48;;;;;;;;;;;;;;;;;;4880582;29;19915;-56
2024/03/20 05:47:14;;;;;;;;;;;;;;;;;;4876840;29;20399;-61
2024/03/20 05:49:40;;;;;;;;;;;;;;;;;;4877728;29;20364;-56
2024/03/20 05:52:06;;;;;;;;;;;;;;;;;;4873759;29;20824;-53
2024/03/20 05:54:32;;;;;;;;;;;;;;;;;;4873622;29;20355;-53
2024/03/20 05:56:58;;;;;;;;;;;;;;;;;;4874358;29;20329;-53
2024/03/20 05:59:24;;;;;;;;;;;;;;;;;;4878571;29;20336;-53
2024/03/20 06:01:50;;;;;;;;;;;;;;;;;;4874344;29;20384;-53
2024/03/20 06:04:16;;;;;;;;;;;;;;;;;;4879287;29;19922;-53
2024/03/20 06:06:42;;;;;;;;;;;;;;;;;;4880894;29;19955;-54
2024/03/20 06:09:13;;;;;;;;;;;;;;;;;;4877567;29;19973;-54
2024/03/20 06:11:39;;;;;;;;;;;;;;;;;;4876937;29;20356;-57
2024/03/20 06:14:05;;;;;;;;;;;;;;;;;;4882598;29;19954;-58
2024/03/20 06:16:31;;;;;;;;;;;;;;;;;;4877812;29;19963;-58
2024/03/20 06:18:57;;;;;;;;;;;;;;;;;;4877356;29;19915;-57
2024/03/20 06:21:23;;;;;;;;;;;;;;;;;;4879437;29;20361;-58
2024/03/20 06:23:49;;;;;;;;;;;;;;;;;;4877177;29;19922;-59
2024/03/20 06:26:15;;;;;;;;;;;;;;;;;;4879827;29;19955;-59
2024/03/20 06:28:41;;;;;;;;;;;;;;;;;;4863487;29;19963;-58
2024/03/20 06:31:07;;;;;;;;;;;;;;;;;;4869393;29;19959;-57
2024/03/20 06:33:34;;;;;;;;;;;;;;;;;;4858410;29;20315;-58
2024/03/20 06:36:00;;;;;;;;;;;;;;;;;;4859464;29;20388;-58
2024/03/20 06:38:26;;;;;;;;;;;;;;;;;;4860011;29;19959;-59
2024/03/20 06:40:51;;;;;;;;;;;;;;;;;;4862430;29;20074;-59
2024/03/20 06:43:17;;;;;;;;;;;;;;;;;;4857196;29;19975;-58
2024/03/20 06:45:49;;;;;;;;;;;;;;;;;;4864988;29;19948;-58
2024/03/20 06:48:15;;;;;;;;;;;;;;;;;;4859024;29;19919;-59
2024/03/20 06:50:41;;;;;;;;;;;;;;;;;;4860529;29;19951;-58
2024/03/20 06:53:09;;;;;;;;;;;;;;;;;;4858816;29;19920;-57
2024/03/20 06:55:36;;;;;;;;;;;;;;;;;;4858463;29;19912;-59
2024/03/20 06:58:02;;;;;;;;;;;;;;;;;;4862925;29;19916;-59
2024/03/20 07:00:28;;;;;;;;;;;;;;;;;;4860457;29;20763;-54
2024/03/20 07:02:56;;;;;;;;;;;;;;;;;;4859238;29;19995;-52
2024/03/20 07:05:22;;;;;;;;;;;;;;;;;;4860847;29;20260;-52
2024/03/20 07:07:48;;;;;;;;;;;;;;;;;;4857559;29;20000;-53
2024/03/20 07:10:14;;;;;;;;;;;;;;;;;;4859671;29;19976;-52
2024/03/20 07:12:40;;;;;;;;;;;;;;;;;;4858011;29;20293;-52
2024/03/20 07:18:00;;;;;;;;;;;;;;;;;;4850813;29;19971;-53
2024/03/20 07:34:10;;;;;;;;;;;;;;;;;;4806224;29;19930;-55
2024/03/20 07:36:36;;;;;;;;;;;;;;;;;;4875765;29;19986;-55
2024/03/20 07:39:07;;;;;;;;;;;;;;;;;;4875635;29;20003;-55
2024/03/20 07:41:33;;;;;;;;;;;;;;;;;;4876313;29;20016;-55
2024/03/20 07:43:59;;;;;;;;;;;;;;;;;;4875307;29;20297;-55
2024/03/20 07:46:25;;;;;;;;;;;;;;;;;;4877948;29;19956;-55
2024/03/20 07:48:51;;;;;;;;;;;;;;;;;;4877987;29;19939;-55
2024/03/20 07:51:17;;;;;;;;;;;;;;;;;;4876959;29;19939;-55
2024/03/20 07:53:44;;;;;;;;;;;;;;;;;;4878272;29;20330;-55
2024/03/20 07:56:10;;;;;;;;;;;;;;;;;;4877245;29;19915;-55
2024/03/20 07:58:37;;;;;;;;;;;;;;;;;;4879367;29;20257;-55
2024/03/20 08:01:04;;;;;;;;;;;;;;;;;;4875886;29;19916;-55
2024/03/20 08:03:29;;;;;;;;;;;;;;;;;;4875165;29;19923;-55
2024/03/20 08:05:55;;;;;;;;;;;;;;;;;;4876084;29;20013;-55
2024/03/20 08:08:21;;;;;;;;;;;;;;;;;;4876295;29;19916;-55
2024/03/20 08:10:47;;;;;;;;;;;;;;;;;;4876454;29;19962;-55
2024/03/20 08:13:14;;;;;;;;;;;;;;;;;;4878373;29;19977;-55
2024/03/20 08:15:40;;;;;;;;;;;;;;;;;;4876219;29;19920;-56
2024/03/20 08:18:05;;;;;;;;;;;;;;;;;;4875925;29;19947;-55
2024/03/20 08:20:33;;;;;;;;;;;;;;;;;;4876183;29;20378;-55
2024/03/20 08:22:59;;;;;;;;;;;;;;;;;;4874652;29;19927;-56
2024/03/20 08:25:25;;;;;;;;;;;;;;;;;;4875300;29;19973;-55
2024/03/20 08:27:51;;;;;;;;;;;;;;;;;;4877702;29;19971;-56
2024/03/20 08:30:17;;;;;;;;;;;;;;;;;;4872826;29;19976;-55
2024/03/20 08:32:43;;;;;;;;;;;;;;;;;;4879165;29;19962;-53
2024/03/20 08:35:10;;;;;;;;;;;;;;;;;;4858251;29;20334;-55
2024/03/20 08:37:36;;;;;;;;;;;;;;;;;;4858325;29;19931;-54
2024/03/20 08:40:03;;;;;;;;;;;;;;;;;;4856721;29;20712;-55
2024/03/20 08:42:30;;;;;;;;;;;;;;;;;;4857464;29;19924;-54
2024/03/20 08:44:56;;;;;;;;;;;;;;;;;;4856490;29;19935;-54
2024/03/20 08:47:22;;;;;;;;;;;;;;;;;;4856745;29;19997;-54
2024/03/20 08:49:48;;;;;;;;;;;;;;;;;;4856660;29;19951;-54
2024/03/20 08:52:14;;;;;;;;;;;;;;;;;;4860899;29;19964;-54
2024/03/20 08:54:43;;;;;;;;;;;;;;;;;;4860005;29;20566;-55
2024/03/20 08:57:09;;;;;;;;;;;;;;;;;;4854801;29;20395;-55
2024/03/20 08:59:35;;;;;;;;;;;;;;;;;;4856966;29;20014;-54
2024/03/20 09:02:02;;;;;;;;;;;;;;;;;;4857674;29;19959;-55
2024/03/20 09:04:28;;;;;;;;;;;;;;;;;;4863044;29;19920;-54
2024/03/20 09:06:55;;;;;;;;;;;;;;;;;;4857621;29;19947;-53
2024/03/20 09:09:21;;;;;;;;;;;;;;;;;;4856486;29;19912;-54
2024/03/20 09:11:47;;;;;;;;;;;;;;;;;;4857180;29;19984;-54
2024/03/20 09:14:13;;;;;;;;;;;;;;;;;;4857026;29;19954;-55
2024/03/20 09:16:39;;;;;;;;;;;;;;;;;;4856761;29;19966;-54
2024/03/20 09:19:05;;;;;;;;;;;;;;;;;;4856852;29;19973;-55
2024/03/20 09:21:34;;;;;;;;;;;;;;;;;;4856777;29;19955;-59
2024/03/20 09:24:00;;;;;;;;;;;;;;;;;;4856976;29;19976;-58
2024/03/20 09:26:26;;;;;;;;;;;;;;;;;;4861111;29;20333;-59
2024/03/20 09:28:52;;;;;;;;;;;;;;;;;;4858497;29;20329;-59
2024/03/20 09:31:18;;;;;;;;;;;;;;;;;;4856844;29;21887;-59
2024/03/20 09:33:44;;;;;;;;;;;;;;;;;;4870644;29;19920;-59
2024/03/20 09:36:10;;;;;;;;;;;;;;;;;;4871059;29;20028;-59
2024/03/20 09:38:36;;;;;;;;;;;;;;;;;;4875315;29;19995;-60
2024/03/20 09:41:02;;;;;;;;;;;;;;;;;;4873817;29;19954;-59
2024/03/20 09:43:28;;;;;;;;;;;;;;;;;;4871832;29;19994;-58
2024/03/20 09:45:54;;;;;;;;;;;;;;;;;;4874639;29;20316;-58
2024/03/20 09:48:20;;;;;;;;;;;;;;;;;;4874116;29;20411;-58
2024/03/20 09:50:46;;;;;;;;;;;;;;;;;;4873920;29;20395;-58
2024/03/20 09:53:12;;;;;;;;;;;;;;;;;;4872719;29;19999;-58
2024/03/20 09:55:38;;;;;;;;;;;;;;;;;;4873468;29;20349;-59
2024/03/20 09:58:04;;;;;;;;;;;;;;;;;;4875594;29;20451;-59
2024/03/20 10:00:30;;;;;;;;;;;;;;;;;;4874045;29;20046;-59
2024/03/20 10:02:56;;;;;;;;;;;;;;;;;;4872889;29;20026;-60
2024/03/20 10:05:22;;;;;;;;;;;;;;;;;;4870637;29;19969;-59
2024/03/20 10:07:51;;;;;;;;;;;;;;;;;;4867435;29;19973;-58
2024/03/20 10:10:17;;;;;;;;;;;;;;;;;;4872343;29;19912;-60
2024/03/20 10:12:43;;;;;;;;;;;;;;;;;;4873471;29;19930;-60
2024/03/20 10:15:09;;;;;;;;;;;;;;;;;;4873745;29;19952;-59
2024/03/20 10:17:35;;;;;;;;;;;;;;;;;;4873592;29;19947;-58
2024/03/20 10:20:01;;;;;;;;;;;;;;;;;;4874976;29;20462;-59
2024/03/20 10:22:27;;;;;;;;;;;;;;;;;;4873854;29;19923;-59
2024/03/20 10:24:53;;;;;;;;;;;;;;;;;;4874260;29;20364;-59
2024/03/20 10:27:19;;;;;;;;;;;;;;;;;;4872058;29;20588;-58
2024/03/20 10:29:45;;;;;;;;;;;;;;;;;;4874898;29;20456;-59
2024/03/20 10:32:12;;;;;;;;;;;;;;;;;;4873918;29;19932;-55
2024/03/20 10:34:38;;;;;;;;;;;;;;;;;;4873639;29;19918;-55
2024/03/20 10:37:04;;;;;;;;;;;;;;;;;;4874400;29;19919;-55
2024/03/20 10:39:31;;;;;;;;;;;;;;;;;;4873628;29;20477;-55
2024/03/20 10:41:57;;;;;;;;;;;;;;;;;;4874509;29;19943;-55
2024/03/20 10:44:22;;;;;;;;;;;;;;;;;;4874780;29;20378;-55
2024/03/20 10:46:49;;;;;;;;;;;;;;;;;;4875327;29;19951;-55
2024/03/20 10:49:15;;;;;;;;;;;;;;;;;;4877639;29;20253;-55
2024/03/20 10:51:40;;;;;;;;;;;;;;;;;;4880401;29;19980;-59
2024/03/20 10:54:06;;;;;;;;;;;;;;;;;;4880219;29;19951;-59
2024/03/20 10:56:32;;;;;;;;;;;;;;;;;;4876314;29;19969;-59
2024/03/20 10:58:58;;;;;;;;;;;;;;;;;;4875414;29;19970;-58
2024/03/20 11:01:24;;;;;;;;;;;;;;;;;;4877354;29;20427;-60
2024/03/20 11:03:52;;;;;;;;;;;;;;;;;;4870601;29;19924;-59
2024/03/20 11:06:17;;;;;;;;;;;;;;;;;;4877590;29;20006;-60
2024/03/20 11:08:43;;;;;;;;;;;;;;;;;;4876335;29;19982;-58
2024/03/20 11:11:10;;;;;;;;;;;;;;;;;;4877412;29;20038;-59
2024/03/20 11:13:36;;;;;;;;;;;;;;;;;;4876302;29;20002;-60
2024/03/20 11:16:03;;;;;;;;;;;;;;;;;;4876941;29;19916;-58
2024/03/20 11:18:29;;;;;;;;;;;;;;;;;;4877599;29;20372;-56
2024/03/20 11:20:55;;;;;;;;;;;;;;;;;;4877819;29;19958;-60
2024/03/20 11:23:21;;;;;;;;;;;;;;;;;;4875173;29;19966;-59
2024/03/20 11:25:47;;;;;;;;;;;;;;;;;;4876862;29;19920;-63
2024/03/20 11:28:13;;;;;;;;;;;;;;;;;;4877871;29;19918;-60
2024/03/20 11:30:39;;;;;;;;;;;;;;;;;;4880403;29;19943;-60
2024/03/20 11:33:05;;;;;;;;;;;;;;;;;;4864923;29;19959;-60
2024/03/20 11:35:31;;;;;;;;;;;;;;;;;;4858948;29;19955;-59
2024/03/20 11:37:57;;;;;;;;;;;;;;;;;;4863201;29;20388;-58
2024/03/20 11:40:23;;;;;;;;;;;;;;;;;;4854459;29;19944;-60
2024/03/20 11:42:50;;;;;;;;;;;;;;;;;;4855715;29;19979;-56
2024/03/20 11:45:17;;;;;;;;;;;;;;;;;;4867854;29;19991;-56
2024/03/20 11:47:43;;;;;;;;;;;;;;;;;;4857689;29;19916;-56
2024/03/20 11:50:09;;;;;;;;;;;;;;;;;;4859445;29;20406;-56
2024/03/20 11:52:35;;;;;;;;;;;;;;;;;;4860558;29;19912;-56
2024/03/20 11:55:01;;;;;;;;;;;;;;;;;;4865183;29;19955;-56
2024/03/20 11:57:27;;;;;;;;;;;;;;;;;;4862742;29;19915;-56
2024/03/20 11:59:56;;;;;;;;;;;;;;;;;;4861762;29;19935;-56
2024/03/20 12:02:22;;;;;;;;;;;;;;;;;;4868095;29;20411;-52
2024/03/20 12:04:48;;;;;;;;;;;;;;;;;;4859556;29;19954;-54
2024/03/20 12:07:14;;;;;;;;;;;;;;;;;;4857000;29;20265;-53
2024/03/20 12:09:40;;;;;;;;;;;;;;;;;;4860736;29;20416;-53
2024/03/20 12:12:06;;;;;;;;;;;;;;;;;;4857601;29;19955;-53
2024/03/20 12:14:32;;;;;;;;;;;;;;;;;;4863221;29;19916;-54
2024/03/20 12:16:58;;;;;;;;;;;;;;;;;;4861258;29;19968;-55
2024/03/20 12:19:24;;;;;;;;;;;;;;;;;;4853738;29;20006;-54
2024/03/20 12:21:50;;;;;;;;;;;;;;;;;;4850967;29;19923;-53
2024/03/20 12:24:16;;;;;;;;;;;;;;;;;;4865497;29;20372;-54
2024/03/20 12:26:42;;;;;;;;;;;;;;;;;;4858888;29;20510;-53
2024/03/20 12:29:08;;;;;;;;;;;;;;;;;;4861745;29;20266;-54
2024/03/20 12:31:40;;;;;;;;;;;;;;;;;;4859837;29;19959;-52
2024/03/20 12:34:06;;;;;;;;;;;;;;;;;;4861868;29;20385;-52
2024/03/20 12:36:32;;;;;;;;;;;;;;;;;;4865760;29;19974;-54
2024/03/20 12:38:58;;;;;;;;;;;;;;;;;;4860526;29;19966;-52
2024/03/20 12:41:25;;;;;;;;;;;;;;;;;;4862685;29;19985;-54
2024/03/20 12:43:51;;;;;;;;;;;;;;;;;;4859927;29;19916;-54
2024/03/20 12:46:18;;;;;;;;;;;;;;;;;;4854897;29;19959;-52
2024/03/20 12:48:44;;;;;;;;;;;;;;;;;;4864523;29;19915;-56
2024/03/20 12:51:10;;;;;;;;;;;;;;;;;;4862528;29;19912;-52
2024/03/20 12:53:36;;;;;;;;;;;;;;;;;;4860325;29;20040;-56
2024/03/20 12:56:02;;;;;;;;;;;;;;;;;;4863209;29;19923;-56
2024/03/20 12:58:28;;;;;;;;;;;;;;;;;;4855837;29;20046;-56
2024/03/20 13:00:54;;;;;;;;;;;;;;;;;;4857769;29;20004;-56
2024/03/20 13:03:20;;;;;;;;;;;;;;;;;;4859464;29;19952;-56
2024/03/20 13:05:51;;;;;;;;;;;;;;;;;;4862527;29;19923;-56
2024/03/20 13:08:19;;;;;;;;;;;;;;;;;;4857838;29;19919;-56
2024/03/20 13:10:45;;;;;;;;;;;;;;;;;;4855884;29;19985;-56
2024/03/20 13:13:11;;;;;;;;;;;;;;;;;;4855286;29;19958;-55
2024/03/20 13:15:40;;;;;;;;;;;;;;;;;;4857047;29;19959;-55
2024/03/20 13:18:06;;;;;;;;;;;;;;;;;;4856460;29;19945;-54
2024/03/20 13:20:32;;;;;;;;;;;;;;;;;;4856032;29;19989;-54
2024/03/20 13:23:00;;;;;;;;;;;;;;;;;;4858270;29;19919;-53
2024/03/20 13:25:32;;;;;;;;;;;;;;;;;;4856044;29;19920;-54
2024/03/20 13:28:01;;;;;;;;;;;;;;;;;;4858630;29;19918;-52
2024/03/20 13:30:27;;;;;;;;;;;;;;;;;;4856264;29;19912;-54
2024/03/20 13:32:54;;;;;;;;;;;;;;;;;;4864246;29;20418;-53
2024/03/20 13:35:20;;;;;;;;;;;;;;;;;;4855106;29;20363;-54
2024/03/20 13:37:45;;;;;;;;;;;;;;;;;;4854626;29;19943;-54
2024/03/20 13:45:42;;;;;;;;;;;;;;;;;;4856560;29;19930;-53
2024/03/20 13:48:08;;;;;;;;;;;;;;;;;;4854181;29;19950;-53
2024/03/20 13:50:34;;;;;;;;;;;;;;;;;;4856030;29;19955;-53
2024/03/20 13:53:00;;;;;;;;;;;;;;;;;;4855228;29;19938;-53
2024/03/20 13:55:26;;;;;;;;;;;;;;;;;;4859980;29;19912;-54
2024/03/20 13:57:52;;;;;;;;;;;;;;;;;;4857379;29;19999;-53
2024/03/20 14:00:18;;;;;;;;;;;;;;;;;;4855645;29;20327;-52
2024/03/20 14:02:44;;;;;;;;;;;;;;;;;;4855966;29;19967;-54
2024/03/20 14:05:10;;;;;;;;;;;;;;;;;;4856142;29;19965;-55
2024/03/20 14:07:36;;;;;;;;;;;;;;;;;;4849567;29;20408;-56
2024/03/20 14:10:02;;;;;;;;;;;;;;;;;;4854825;29;20038;-55
2024/03/20 14:12:28;;;;;;;;;;;;;;;;;;4855973;29;20349;-54
2024/03/20 14:14:54;;;;;;;;;;;;;;;;;;4856646;29;20379;-56
2024/03/20 14:17:20;;;;;;;;;;;;;;;;;;4863719;29;19959;-54
2024/03/20 14:19:46;;;;;;;;;;;;;;;;;;4857458;29;19973;-54
2024/03/20 14:22:12;;;;;;;;;;;;;;;;;;4857707;29;19916;-60
2024/03/20 14:24:39;;;;;;;;;;;;;;;;;;4860789;29;20004;-59
2024/03/20 14:27:05;;;;;;;;;;;;;;;;;;4861083;29;20389;-60
2024/03/20 14:29:33;;;;;;;;;;;;;;;;;;4879557;29;20372;-60
2024/03/20 14:31:59;;;;;;;;;;;;;;;;;;4872983;29;19911;-60
2024/03/20 14:34:28;;;;;;;;;;;;;;;;;;4879209;29;20320;-59
2024/03/20 14:36:53;;;;;;;;;;;;;;;;;;4876732;29;19919;-59
2024/03/20 14:39:19;;;;;;;;;;;;;;;;;;4878930;29;20017;-60
2024/03/20 14:41:45;;;;;;;;;;;;;;;;;;4879103;29;19939;-58
2024/03/20 14:44:13;;;;;;;;;;;;;;;;;;4875376;29;19992;-57
2024/03/20 14:46:39;;;;;;;;;;;;;;;;;;4876217;29;20383;-58
2024/03/20 14:49:05;;;;;;;;;;;;;;;;;;4875168;29;19947;-61
2024/03/20 14:51:32;;;;;;;;;;;;;;;;;;4877012;29;19962;-58
2024/03/20 14:53:58;;;;;;;;;;;;;;;;;;4879031;29;19912;-58
2024/03/20 14:56:24;;;;;;;;;;;;;;;;;;4876179;29;20000;-58
2024/03/20 14:58:51;;;;;;;;;;;;;;;;;;4880641;29;19963;-57
2024/03/20 15:01:17;;;;;;;;;;;;;;;;;;4876788;29;20014;-58
2024/03/20 15:03:43;;;;;;;;;;;;;;;;;;4874936;29;20343;-58
2024/03/20 15:06:09;;;;;;;;;;;;;;;;;;4877363;29;20379;-57
2024/03/20 15:08:36;;;;;;;;;;;;;;;;;;4880152;29;20268;-58
2024/03/20 15:11:02;;;;;;;;;;;;;;;;;;4877917;29;19988;-59
2024/03/20 15:13:28;;;;;;;;;;;;;;;;;;4877635;29;20480;-54
2024/03/20 15:15:54;;;;;;;;;;;;;;;;;;4885853;29;19916;-54
2024/03/20 15:18:20;;;;;;;;;;;;;;;;;;4878306;29;20441;-54
2024/03/20 15:20:47;;;;;;;;;;;;;;;;;;4877969;29;19962;-55
2024/03/20 15:23:14;;;;;;;;;;;;;;;;;;4877680;29;19920;-55
2024/03/20 15:25:40;;;;;;;;;;;;;;;;;;4876266;29;20714;-55
2024/03/20 15:28:06;;;;;;;;;;;;;;;;;;4874679;29;19916;-55
2024/03/20 15:30:32;;;;;;;;;;;;;;;;;;4876720;29;19962;-55
2024/03/20 15:32:58;;;;;;;;;;;;;;;;;;4874716;29;19960;-55
2024/03/20 15:35:24;;;;;;;;;;;;;;;;;;4875708;29;19996;-55
2024/03/20 15:37:51;;;;;;;;;;;;;;;;;;4870183;29;19936;-55
2024/03/20 15:40:17;;;;;;;;;;;;;;;;;;4873091;29;19916;-55
2024/03/20 15:42:43;;;;;;;;;;;;;;;;;;4874939;29;19916;-55
2024/03/20 15:45:09;;;;;;;;;;;;;;;;;;4873828;29;20057;-55
2024/03/20 15:47:35;;;;;;;;;;;;;;;;;;4873754;29;21143;-55
2024/03/20 15:50:01;;;;;;;;;;;;;;;;;;4874092;29;19922;-55
2024/03/20 15:52:27;;;;;;;;;;;;;;;;;;4876974;29;20368;-55
2024/03/20 15:54:54;;;;;;;;;;;;;;;;;;4874222;29;19943;-55
2024/03/20 15:57:20;;;;;;;;;;;;;;;;;;4878780;29;19922;-55
2024/03/20 15:59:46;;;;;;;;;;;;;;;;;;4875605;29;19912;-55
2024/03/20 16:02:11;;;;;;;;;;;;;;;;;;4876124;29;20003;-54
2024/03/20 16:04:37;;;;;;;;;;;;;;;;;;4876928;29;20375;-54
2024/03/20 16:07:03;;;;;;;;;;;;;;;;;;4878128;29;20014;-55
2024/03/20 16:09:29;;;;;;;;;;;;;;;;;;4881113;29;20368;-54
2024/03/20 16:11:57;;;;;;;;;;;;;;;;;;4876827;29;19966;-55
2024/03/20 16:14:23;;;;;;;;;;;;;;;;;;4875984;29;19912;-55
2024/03/20 16:16:49;;;;;;;;;;;;;;;;;;4876854;29;20418;-55
2024/03/20 16:19:16;;;;;;;;;;;;;;;;;;4879560;29;20001;-56
2024/03/20 16:21:44;;;;;;;;;;;;;;;;;;4875962;29;19938;-55
2024/03/20 16:24:09;;;;;;;;;;;;;;;;;;4876835;29;19915;-54
2024/03/20 16:26:35;;;;;;;;;;;;;;;;;;4874581;29;20394;-55
2024/03/20 16:29:01;;;;;;;;;;;;;;;;;;4877882;29;19950;-55
2024/03/20 16:31:28;;;;;;;;;;;;;;;;;;4875338;29;20383;-55
2024/03/20 16:33:54;;;;;;;;;;;;;;;;;;4876374;29;20195;-55
2024/03/20 16:36:21;;;;;;;;;;;;;;;;;;4875699;29;19912;-55
2024/03/20 16:38:48;;;;;;;;;;;;;;;;;;4875784;29;20555;-54
2024/03/20 16:41:14;;;;;;;;;;;;;;;;;;4877964;29;19919;-55
2024/03/20 16:43:41;;;;;;;;;;;;;;;;;;4876587;29;19973;-56
2024/03/20 16:46:07;;;;;;;;;;;;;;;;;;4875605;29;19995;-56
2024/03/20 16:48:33;;;;;;;;;;;;;;;;;;4876265;29;20468;-55
2024/03/20 16:50:59;;;;;;;;;;;;;;;;;;4877150;29;19936;-55
2024/03/20 16:53:26;;;;;;;;;;;;;;;;;;4879385;29;19955;-55
2024/03/20 16:55:55;;;;;;;;;;;;;;;;;;4875016;29;19915;-55
2024/03/20 16:58:21;;;;;;;;;;;;;;;;;;4875403;29;19912;-55
2024/03/20 17:00:46;;;;;;;;;;;;;;;;;;4875601;29;19915;-56